Notl Queenston

*Note: All times are displayed in the local standard time of the station location.
**Rain - Equipment is designed to accurately record liquid precipitation; under conditions when precipitation is not in liquid form, the data displayed may not properly reflect rainfall values.

Date Max Temp
(°C)
Min Temp
(°C)
Avg Temp
(°C)
Rain (mm) Avg RH (%) Solar Rad (kJ/m2)
Sun, Dec 10, 2017 -1.1 -2.6 -1.8 0.0 72.9 1330.8
Sat, Dec 09, 2017 1.0 -3.2 -0.7 0.0 63.9 3093.3
Fri, Dec 08, 2017 0.4 -4.2 -1.6 0.0 63.3 1099.0
Thu, Dec 07, 2017 1.6 -3.0 -0.5 0.0 62.5 4171.5
Wed, Dec 06, 2017 4.3 -0.5 1.7 0.0 55.2 4845.2
Tue, Dec 05, 2017 11.7 0.8 7.9 7.0 71.1 769.1
Mon, Dec 04, 2017 11.5 -2.0 6.5 0.2 71.3 2774.6
DateTime Avg Temp (°C) Rain (mm) RH (%) Solar Rad (kJ/m2)
Mon, Dec 11, 2017 02:00 -2.3 0.0 89.0 -
Mon, Dec 11, 2017 01:00 -1.9 0.0 76.8 -
Mon, Dec 11, 2017 00:00 -2.2 0.0 75.8 -
Sun, Dec 10, 2017 23:00 -2.1 0.0 73.5 -
Sun, Dec 10, 2017 22:00 -1.9 0.0 72.3 0.0
Sun, Dec 10, 2017 21:00 -1.6 0.0 69.3 -
Sun, Dec 10, 2017 20:00 -1.6 0.0 67.3 -
Sun, Dec 10, 2017 19:00 -1.5 0.0 62.8 -
Sun, Dec 10, 2017 18:00 -1.3 0.0 61.8 -
Sun, Dec 10, 2017 17:00 -1.4 0.0 67.0 7.4
Sun, Dec 10, 2017 16:00 -1.3 0.0 70.0 54.7
Sun, Dec 10, 2017 15:00 -1.3 0.0 69.5 110.0
Sun, Dec 10, 2017 14:00 -1.3 0.0 68.8 158.7
Sun, Dec 10, 2017 13:00 -1.2 0.0 66.8 225.2
Sun, Dec 10, 2017 12:00 -1.3 0.0 63.5 299.5
Sun, Dec 10, 2017 11:00 -1.8 0.0 63.5 231.8
Sun, Dec 10, 2017 10:00 -2.2 0.0 65.5 163.1
Sun, Dec 10, 2017 09:00 -2.6 0.0 65.8 76.7
Sun, Dec 10, 2017 08:00 -2.4 0.0 70.8 3.7
Sun, Dec 10, 2017 07:00 -2.2 0.0 77.8 -
Sun, Dec 10, 2017 06:00 -1.8 0.0 79.8 -
Sun, Dec 10, 2017 05:00 -2.0 0.0 89.0 -
Sun, Dec 10, 2017 04:00 -2.0 0.0 89.0 -
Sun, Dec 10, 2017 03:00 -2.1 0.0 87.0 -
Sun, Dec 10, 2017 02:00 -2.1 0.0 86.3 0.0
Sun, Dec 10, 2017 01:00 -2.1 0.0 86.8 -
Sun, Dec 10, 2017 00:00 -2.8 0.0 89.3 -
Sat, Dec 09, 2017 23:00 -2.9 0.0 87.0 0.0
Sat, Dec 09, 2017 22:00 -2.2 0.0 79.8 -
Sat, Dec 09, 2017 21:00 -1.1 0.0 71.0 -
Sat, Dec 09, 2017 20:00 -0.5 0.0 64.0 0.0
Sat, Dec 09, 2017 19:00 -1.5 0.0 66.8 0.0
Sat, Dec 09, 2017 18:00 -1.1 0.0 62.8 -
Sat, Dec 09, 2017 17:00 -0.2 0.0 56.8 29.7
Sat, Dec 09, 2017 16:00 0.6 0.0 51.8 140.0
Sat, Dec 09, 2017 15:00 0.9 0.0 52.0 317.8
Sat, Dec 09, 2017 14:00 0.8 0.0 52.0 422.8
Sat, Dec 09, 2017 13:00 0.6 0.0 53.8 435.8
Sat, Dec 09, 2017 12:00 0.7 0.0 52.8 653.4
Sat, Dec 09, 2017 11:00 -0.1 0.0 60.0 467.0
Sat, Dec 09, 2017 10:00 -1.0 0.0 63.0 499.2
Sat, Dec 09, 2017 09:00 -2.0 0.0 69.3 122.9
Sat, Dec 09, 2017 08:00 -2.0 0.0 69.3 4.7
Sat, Dec 09, 2017 07:00 -0.8 0.0 72.3 -
Sat, Dec 09, 2017 06:00 -0.9 0.0 71.5 -
Sat, Dec 09, 2017 05:00 -0.1 0.0 66.5 -
Sat, Dec 09, 2017 04:00 -0.3 0.0 55.5 -
Sat, Dec 09, 2017 03:00 -0.4 0.0 54.5 -


asterix Register now to access more data! asterix